»·PEaware :: ACA314 KSLC-KVEL

ACA314 :: KSLC-KVEL

FLIGHT INFORMATION

Flight Status: Arrived
Operator:
Air Canada
More flights by this operator :: More flights under this callsign
Pilot: Tim B. (15084)
Aircraft: AIRBUS A320
(A320)
More flights by this aircraft type
Origin: KSLC Salt Lake City Intl
United States
Destination: KVEL Vernal
United States
More flights between these airports :: More routes between these airports
Route: SEVYR3 TCH V101 VEL
File this flight plan on PilotEdge
Remarks:
Altitude:
(Current/Filed)
17,000ft
Speed:
(Current/Filed)
500kts
Departed: 05-May-19 01:47 PM
Arrived: 05-May-19 02:16 PM
Distance/Time
Traveled:
114nm/0:29
Distance/Time
To Go:
Arrived

Flight Plot

Page will automatically refresh every two minutes.

Flight plan parsing failed; only flown route is shown


Map Options




Map Legend


Flown Route
Filed Route
Departure Airport
Arrival Airport
Navaid (VOR, NDB)
Fix

Horizontal Profiles

Position Reports

Time Latitude Longitude Heading Altitude Ground
Speed
05-May-19 13:20 40.789201 -111.981568 99 4225ft 0kts
05-May-19 13:21 40.789201 -111.981568 99 4225ft 0kts
05-May-19 13:22 40.789201 -111.981568 99 4225ft 0kts
05-May-19 13:23 40.789201 -111.981568 99 4225ft 0kts
05-May-19 13:24 40.789201 -111.981568 99 4225ft 0kts
05-May-19 13:25 40.789201 -111.981568 99 4225ft 0kts
05-May-19 13:26 40.789201 -111.981568 99 4225ft 0kts
05-May-19 13:27 40.789201 -111.981568 99 4225ft 0kts
05-May-19 13:29 40.789201 -111.981568 99 4225ft 0kts
05-May-19 13:30 40.789201 -111.981568 99 4225ft 0kts
05-May-19 13:31 40.789201 -111.981568 99 4225ft 0kts
05-May-19 13:32 40.789201 -111.981568 99 4225ft 0kts
05-May-19 13:33 40.789201 -111.981568 99 4225ft 0kts
05-May-19 13:34 40.789201 -111.981568 99 4225ft 0kts
05-May-19 13:35 40.789201 -111.981568 99 4225ft 0kts
05-May-19 13:36 40.789201 -111.981568 99 4225ft 0kts
05-May-19 13:37 40.789201 -111.981568 99 4225ft 0kts
05-May-19 13:38 40.789201 -111.981568 99 4225ft 0kts
05-May-19 13:39 40.789230 -111.981802 99 4225ft 1kts
05-May-19 13:40 40.789276 -111.982438 43 4225ft 1kts
05-May-19 13:41 40.789139 -111.982491 4 4225ft 0kts
05-May-19 13:42 40.789139 -111.982491 4 4225ft 0kts
05-May-19 13:43 40.790005 -111.980282 88 4225ft 13kts
05-May-19 13:44 40.788235 -111.976889 175 4225ft 17kts
05-May-19 13:45 40.781741 -111.976136 175 4228ft 26kts
05-May-19 13:46 40.775651 -111.973950 68 4228ft 19kts
05-May-19 13:47 40.797215 -111.976192 342 4916ft 159kts
05-May-19 13:48 40.846432 -112.003239 331 7562ft 237kts
05-May-19 13:49 40.912434 -112.009297 43 9811ft 283kts
05-May-19 13:50 40.916005 -111.914913 121 12418ft 298kts
05-May-19 13:50 40.881855 -111.834139 122 15027ft 313kts
05-May-19 13:52 40.829787 -111.712835 121 17470ft 357kts
05-May-19 13:53 40.786758 -111.592715 106 17479ft 378kts
05-May-19 13:53 40.763745 -111.481454 106 17488ft 380kts
05-May-19 13:55 40.731922 -111.325744 105 17494ft 381kts
05-May-19 13:55 40.711092 -111.212464 105 17494ft 381kts
05-May-19 13:56 40.685882 -111.076847 105 17491ft 382kts
05-May-19 13:58 40.656384 -110.918786 104 17492ft 381kts
05-May-19 13:58 40.636307 -110.811793 103 17492ft 380kts
05-May-19 13:59 40.610852 -110.677325 104 17505ft 380kts
05-May-19 14:00 40.585188 -110.542691 103 17541ft 378kts
05-May-19 14:01 40.559512 -110.409164 104 17578ft 376kts
05-May-19 14:02 40.535205 -110.283090 105 16300ft 341kts
05-May-19 14:03 40.512520 -110.166441 105 13325ft 322kts
05-May-19 14:04 40.490772 -110.055193 105 11576ft 316kts
05-May-19 14:05 40.468889 -109.944052 105 11576ft 314kts
05-May-19 14:06 40.447084 -109.833377 105 11576ft 314kts
05-May-19 14:07 40.425062 -109.722398 105 11576ft 314kts
05-May-19 14:08 40.401681 -109.612146 108 11578ft 313kts
05-May-19 14:09 40.380400 -109.504518 103 9317ft 304kts
05-May-19 14:10 40.339730 -109.420869 163 7591ft 249kts
05-May-19 14:11 40.298780 -109.459341 271 6784ft 195kts
05-May-19 14:12 40.334378 -109.500997 334 6866ft 179kts
05-May-19 14:13 40.378112 -109.509053 358 6430ft 148kts
05-May-19 14:14 40.419358 -109.509972 355 5518ft 149kts
05-May-19 14:15 40.446637 -109.510878 300 5265ft 13kts

Navigation Log

Ident Type
Flight plan parsing failed, navigation log unavailable